• Join FlightAware (Why Join?)
  • Login
  • US Flag 
04:14AM EDT


 

Airport Tracker/Info


-or-


 

Live Flight TrackerFlight Track Log ✈ JAL1818 ✈ 01-May-2012 ✈ RJFT / KMJ - RJTT / HND

Flight Track Log - Related Links

Times and Time Zones

All times are in EDT time to prevent confusion due to time zone crossing. See the JAL1818 flight status page for this flight to view local times or setup timezone preferences in your user account.

Time Position Orientation Groundspeed Altitude Reporting Facility
EDT Latitude Longitude Course Direction KTS MPH feet Rate Location/Type
07:52AM 32.8475 130.8842 67° East  Level Estimated
07:53AM 32.8884 131.0011 67° East  Level Estimated
07:54AM 32.9292 131.1180 67° East  Level Estimated
07:55AM 32.9698 131.2350 68° East  Level Estimated
07:56AM 33.0104 131.3521 68° East  Level Estimated
07:57AM 33.0508 131.4694 68° East  Level Estimated
07:58AM 33.0912 131.5867 68° East  Level Estimated
07:59AM 33.1314 131.7042 68° East  Level Estimated
08:00AM 33.1715 131.8217 68° East  Level Estimated
08:01AM 33.2115 131.9394 68° East  Level Estimated
08:02AM 33.2514 132.0571 68° East  Level Estimated
08:03AM 33.2912 132.1750 68° East  Level Estimated
08:04AM 33.3308 132.2930 68° East  Level Estimated
08:05AM 33.3704 132.4111 68° East  Level Estimated
08:06AM 33.4098 132.5293 68° East  Level Estimated
08:07AM 33.4492 132.6476 68° East  Level Estimated
08:08AM 33.4884 132.7661 68° East  Level Estimated
08:09AM 33.5275 132.8846 68° East  Level Estimated
08:10AM 33.5665 133.0032 69° East  Level Estimated
08:11AM 33.6053 133.1220 69° East  Level Estimated
08:12AM 33.6441 133.2408 69° East  Level Estimated
08:13AM 33.6828 133.3598 69° East  Level Estimated
08:14AM 33.7213 133.4788 69° East  Level Estimated
08:15AM 33.7597 133.5980 69° East  Level Estimated
08:16AM 33.7980 133.7173 69° East  Level Estimated
08:17AM 33.8362 133.8367 69° East  Level Estimated
08:18AM 33.8743 133.9562 69° East  Level Estimated
08:19AM 33.9123 134.0758 69° East  Level Estimated
08:20AM 33.9501 134.1955 69° East  Level Estimated
08:21AM 33.9878 134.3153 69° East  Level Estimated
08:22AM 34.0254 134.4352 69° East  Level Estimated
08:23AM 34.0629 134.5552 69° East  Level Estimated
08:24AM 34.1003 134.6754 69° East  Level Estimated
08:25AM 34.1376 134.7956 70° East  Level Estimated
08:26AM 34.1747 134.9159 70° East  Level Estimated
08:27AM 34.2118 135.0364 70° East  Level Estimated
08:28AM 34.2487 135.1569 70° East  Level Estimated
08:29AM 34.2855 135.2776 70° East  Level Estimated
08:30AM 34.3221 135.3983 70° East  Level Estimated
08:31AM 34.3587 135.5192 70° East  Level Estimated
08:32AM 34.3951 135.6402 70° East  Level Estimated
08:33AM 34.4315 135.7613 70° East  Level Estimated
08:34AM 34.4677 135.8824 70° East  Level Estimated
08:35AM 34.5037 136.0037 70° East  Level Estimated
08:36AM 34.5397 136.1251 70° East  Level Estimated
08:37AM 34.5755 136.2466 70° East  Level Estimated
08:38AM 34.6113 136.3682 70° East  Level Estimated
08:39AM 34.6469 136.4899 70° East  Level Estimated
08:40AM 34.6823 136.6117 71° East  Level Estimated
08:41AM 34.7182 136.7353 71° East  Level Estimated
08:42AM 34.7539 136.8590 71° East  Level Estimated
08:43AM 34.7895 136.9828 71° East  Level Estimated
08:44AM 34.8249 137.1067 71° East  Level Estimated
08:45AM 34.8603 137.2307 71° East  Level Estimated
08:46AM 34.8955 137.3548 71° East  Level Estimated
08:47AM 34.9306 137.4790 71° East  Level Estimated
08:48AM 34.9655 137.6033 71° East  Level Estimated
08:49AM 35.0004 137.7278 71° East  Level Estimated
08:50AM 35.0351 137.8523 71° East  Level Estimated
08:51AM 35.0696 137.9770 71° East  Level Estimated
08:52AM 35.1041 138.1017 71° East  Level Estimated
08:53AM 35.1399 138.2319 71° East  Level Estimated
08:54AM 35.1760 138.3642 72° East  Level Estimated
08:55AM 35.2121 138.4965 72° East  Level Estimated
08:56AM 35.2480 138.6289 72° East  Level Estimated
08:57AM 35.2837 138.7615 72° East  Level Estimated
08:58AM 35.3183 138.8905 72° East  Level Estimated
08:59AM 35.3532 139.0214 72° East  Level Estimated
09:00AM 35.3880 139.1524 72° East  Level Estimated
09:01AM 35.4227 139.2835 72° East  Level Estimated
09:02AM 35.4572 139.4147 72° East  Level Estimated
09:03AM 35.4916 139.5461 72° East  Level Estimated
09:04AM 35.5258 139.6776 72° East  Level Estimated
09:05AM 35.5599 139.8091 252° West  Level Estimated
09:06AM 35.5258 139.6776 72° East  Level Estimated
09:07AM 35.5599 139.8091 72° East  Level Estimated